sensor_id;sensor_type;location;lat;lon;timestamp;pressure;altitude;pressure_sealevel;temperature;humidity
70314;BME280;57725;47.526;18.986;2022-12-10T00:00:20;98178.03;;;6.06;94.40
70314;BME280;57725;47.526;18.986;2022-12-10T00:02:45;98197.53;;;6.13;95.22
70314;BME280;57725;47.526;18.986;2022-12-10T00:05:10;98197.72;;;6.10;94.49
70314;BME280;57725;47.526;18.986;2022-12-10T00:07:35;98193.38;;;6.10;94.71
70314;BME280;57725;47.526;18.986;2022-12-10T00:10:01;98184.75;;;6.10;94.69
70314;BME280;57725;47.526;18.986;2022-12-10T00:12:26;98196.69;;;6.12;94.86
70314;BME280;57725;47.526;18.986;2022-12-10T00:14:54;98201.88;;;6.12;94.64
70314;BME280;57725;47.526;18.986;2022-12-10T00:17:19;98179.09;;;6.02;95.02
70314;BME280;57725;47.526;18.986;2022-12-10T00:19:45;98201.81;;;6.14;94.74
70314;BME280;57725;47.526;18.986;2022-12-10T00:22:10;98210.50;;;6.13;94.79
70314;BME280;57725;47.526;18.986;2022-12-10T00:24:35;98213.09;;;6.13;95.14
70314;BME280;57725;47.526;18.986;2022-12-10T00:27:01;98221.66;;;6.15;94.84
70314;BME280;57725;47.526;18.986;2022-12-10T00:29:27;98219.97;;;6.14;94.85
70314;BME280;57725;47.526;18.986;2022-12-10T00:31:52;98226.84;;;6.15;94.57
70314;BME280;57725;47.526;18.986;2022-12-10T00:34:17;98224.31;;;6.13;95.08
70314;BME280;57725;47.526;18.986;2022-12-10T00:36:46;98217.44;;;6.12;94.77
70314;BME280;57725;47.526;18.986;2022-12-10T00:39:14;98231.13;;;6.16;94.75
70314;BME280;57725;47.526;18.986;2022-12-10T00:41:42;98232.94;;;6.14;94.94
70314;BME280;57725;47.526;18.986;2022-12-10T00:44:08;98226.84;;;6.15;94.66
70314;BME280;57725;47.526;18.986;2022-12-10T00:46:34;98229.44;;;6.15;94.80
70314;BME280;57725;47.526;18.986;2022-12-10T00:48:59;98232.03;;;6.15;94.68
70314;BME280;57725;47.526;18.986;2022-12-10T00:51:28;98232.09;;;6.13;94.57
70314;BME280;57725;47.526;18.986;2022-12-10T00:53:55;98241.41;;;6.17;95.10
70314;BME280;57725;47.526;18.986;2022-12-10T00:56:24;98242.34;;;6.16;94.54
70314;BME280;57725;47.526;18.986;2022-12-10T00:58:52;98242.41;;;6.15;94.79
70314;BME280;57725;47.526;18.986;2022-12-10T01:01:29;98238.81;;;6.17;94.86
70314;BME280;57725;47.526;18.986;2022-12-10T01:03:59;98244.00;;;6.17;94.97
70314;BME280;57725;47.526;18.986;2022-12-10T01:06:34;98237.06;;;6.18;95.33
70314;BME280;57725;47.526;18.986;2022-12-10T01:09:07;98241.41;;;6.17;95.04
70314;BME280;57725;47.526;18.986;2022-12-10T01:11:35;98248.28;;;6.18;95.12
70314;BME280;57725;47.526;18.986;2022-12-10T01:14:02;98244.84;;;6.18;95.13
70314;BME280;57725;47.526;18.986;2022-12-10T01:16:27;98247.53;;;6.16;94.83
70314;BME280;57725;47.526;18.986;2022-12-10T01:18:54;98256.91;;;6.19;95.07
70314;BME280;57725;47.526;18.986;2022-12-10T01:21:20;98256.91;;;6.19;95.28
70314;BME280;57725;47.526;18.986;2022-12-10T01:23:50;98254.41;;;6.17;95.00
70314;BME280;57725;47.526;18.986;2022-12-10T01:26:19;98257.00;;;6.17;94.92
70314;BME280;57725;47.526;18.986;2022-12-10T01:28:45;98257.81;;;6.18;94.93
70314;BME280;57725;47.526;18.986;2022-12-10T01:33:41;98248.22;;;6.20;95.10
70314;BME280;57725;47.526;18.986;2022-12-10T01:36:12;98260.34;;;6.20;95.27
70314;BME280;57725;47.526;18.986;2022-12-10T01:38:38;98241.34;;;6.19;94.68
70314;BME280;57725;47.526;18.986;2022-12-10T01:41:05;98242.19;;;6.20;94.61
70314;BME280;57725;47.526;18.986;2022-12-10T01:46:54;98233.50;;;6.21;94.91
70314;BME280;57725;47.526;18.986;2022-12-10T01:49:32;98237.84;;;6.20;94.80
70314;BME280;57725;47.526;18.986;2022-12-10T01:52:02;98236.94;;;6.21;95.16
70314;BME280;57725;47.526;18.986;2022-12-10T01:54:33;98235.53;;;6.14;94.93
70314;BME280;57725;47.526;18.986;2022-12-10T01:57:02;98252.50;;;6.21;95.35
70314;BME280;57725;47.526;18.986;2022-12-10T01:59:28;98268.13;;;6.20;94.89
70314;BME280;57725;47.526;18.986;2022-12-10T02:07:14;98280.03;;;6.24;95.15
70314;BME280;57725;47.526;18.986;2022-12-10T02:09:45;98279.28;;;6.22;94.91
70314;BME280;57725;47.526;18.986;2022-12-10T02:15:24;98284.47;;;6.22;95.33
70314;BME280;57725;47.526;18.986;2022-12-10T02:17:55;98285.22;;;6.24;94.95
70314;BME280;57725;47.526;18.986;2022-12-10T02:20:25;98293.09;;;6.22;94.78
70314;BME280;57725;47.526;18.986;2022-12-10T02:23:05;98286.16;;;6.23;95.27
70314;BME280;57725;47.526;18.986;2022-12-10T02:25:56;98283.63;;;6.21;94.88
70314;BME280;57725;47.526;18.986;2022-12-10T02:31:05;98282.63;;;6.24;95.14
70314;BME280;57725;47.526;18.986;2022-12-10T02:33:31;98285.31;;;6.22;94.68
70314;BME280;57725;47.526;18.986;2022-12-10T02:36:01;98284.28;;;6.25;94.87
70314;BME280;57725;47.526;18.986;2022-12-10T02:38:34;98293.94;;;6.23;94.64
70314;BME280;57725;47.526;18.986;2022-12-10T02:41:04;98293.84;;;6.24;95.07
70314;BME280;57725;47.526;18.986;2022-12-10T02:43:31;98292.09;;;6.25;94.66
70314;BME280;57725;47.526;18.986;2022-12-10T02:45:58;98285.22;;;6.24;94.93
70314;BME280;57725;47.526;18.986;2022-12-10T02:48:24;98284.28;;;6.25;95.27
70314;BME280;57725;47.526;18.986;2022-12-10T02:50:50;98283.44;;;6.24;94.71
70314;BME280;57725;47.526;18.986;2022-12-10T02:53:15;98269.75;;;6.22;95.37
70314;BME280;57725;47.526;18.986;2022-12-10T03:03:50;98290.25;;;6.27;95.14
70314;BME280;57725;47.526;18.986;2022-12-10T03:06:24;98283.44;;;6.24;94.72
70314;BME280;57725;47.526;18.986;2022-12-10T03:11:22;98303.16;;;6.28;94.79
70314;BME280;57725;47.526;18.986;2022-12-10T03:16:25;98301.53;;;6.26;95.38
70314;BME280;57725;47.526;18.986;2022-12-10T03:18:57;98303.31;;;6.25;95.37
70314;BME280;57725;47.526;18.986;2022-12-10T03:21:29;98319.63;;;6.27;94.63
70314;BME280;57725;47.526;18.986;2022-12-10T03:23:55;98315.38;;;6.26;94.64
70314;BME280;57725;47.526;18.986;2022-12-10T03:26:21;98320.41;;;6.29;95.11
70314;BME280;57725;47.526;18.986;2022-12-10T03:28:51;98311.00;;;6.27;95.24
70314;BME280;57725;47.526;18.986;2022-12-10T03:31:21;98313.53;;;6.28;95.24
70314;BME280;57725;47.526;18.986;2022-12-10T03:33:47;98312.63;;;6.29;95.01
70314;BME280;57725;47.526;18.986;2022-12-10T03:36:13;98313.59;;;6.27;95.01
70314;BME280;57725;47.526;18.986;2022-12-10T03:38:40;98314.31;;;6.30;95.03
70314;BME280;57725;47.526;18.986;2022-12-10T03:41:05;98325.59;;;6.29;95.03
70314;BME280;57725;47.526;18.986;2022-12-10T03:43:31;98327.28;;;6.30;94.84
70314;BME280;57725;47.526;18.986;2022-12-10T03:45:57;98318.66;;;6.30;94.95
70314;BME280;57725;47.526;18.986;2022-12-10T03:48:25;98329.88;;;6.30;94.93
70314;BME280;57725;47.526;18.986;2022-12-10T03:50:53;98331.56;;;6.31;95.00
70314;BME280;57725;47.526;18.986;2022-12-10T03:53:18;98334.16;;;6.31;95.14
70314;BME280;57725;47.526;18.986;2022-12-10T03:55:43;98336.75;;;6.31;95.05
70314;BME280;57725;47.526;18.986;2022-12-10T03:58:09;98333.31;;;6.31;94.97
70314;BME280;57725;47.526;18.986;2022-12-10T04:00:34;98328.13;;;6.31;94.91
70314;BME280;57725;47.526;18.986;2022-12-10T04:02:59;98328.19;;;6.29;95.45
70314;BME280;57725;47.526;18.986;2022-12-10T04:05:25;98327.22;;;6.32;95.22
70314;BME280;57725;47.526;18.986;2022-12-10T04:07:50;98316.91;;;6.30;94.72
70314;BME280;57725;47.526;18.986;2022-12-10T04:10:16;98322.03;;;6.32;95.32
70314;BME280;57725;47.526;18.986;2022-12-10T04:12:41;98322.03;;;6.32;95.37
70314;BME280;57725;47.526;18.986;2022-12-10T04:15:07;98327.28;;;6.30;95.10
70314;BME280;57725;47.526;18.986;2022-12-10T04:17:51;98337.53;;;6.33;94.74
70314;BME280;57725;47.526;18.986;2022-12-10T04:20:17;98338.44;;;6.32;94.78
70314;BME280;57725;47.526;18.986;2022-12-10T04:23:01;98352.25;;;6.33;94.75
70314;BME280;57725;47.526;18.986;2022-12-10T04:25:45;98354.06;;;6.31;94.82
70314;BME280;57725;47.526;18.986;2022-12-10T04:28:29;98354.91;;;6.31;94.86
70314;BME280;57725;47.526;18.986;2022-12-10T04:30:54;98356.53;;;6.34;94.72
70314;BME280;57725;47.526;18.986;2022-12-10T04:33:22;98353.09;;;6.33;95.00
70314;BME280;57725;47.526;18.986;2022-12-10T04:35:47;98351.47;;;6.31;95.42
70314;BME280;57725;47.526;18.986;2022-12-10T04:38:13;98355.69;;;6.33;95.27
70314;BME280;57725;47.526;18.986;2022-12-10T04:40:38;98351.41;;;6.32;95.44
70314;BME280;57725;47.526;18.986;2022-12-10T04:43:06;98357.38;;;6.34;95.17
70314;BME280;57725;47.526;18.986;2022-12-10T04:45:34;98346.16;;;6.34;95.21
70314;BME280;57725;47.526;18.986;2022-12-10T04:48:00;98342.72;;;6.33;95.32
70314;BME280;57725;47.526;18.986;2022-12-10T04:50:26;98356.53;;;6.34;95.55
70314;BME280;57725;47.526;18.986;2022-12-10T04:52:51;98364.22;;;6.35;94.70
70314;BME280;57725;47.526;18.986;2022-12-10T04:55:16;98359.88;;;6.36;95.09
70314;BME280;57725;47.526;18.986;2022-12-10T04:57:42;98348.63;;;6.35;94.85
70314;BME280;57725;47.526;18.986;2022-12-10T05:00:08;98347.72;;;6.36;94.95
70314;BME280;57725;47.526;18.986;2022-12-10T05:02:33;98339.09;;;6.36;94.97
70314;BME280;57725;47.526;18.986;2022-12-10T05:05:01;98338.19;;;6.37;94.95
70314;BME280;57725;47.526;18.986;2022-12-10T05:07:28;98350.31;;;6.36;95.29
70314;BME280;57725;47.526;18.986;2022-12-10T05:09:54;98350.31;;;6.36;94.84
70314;BME280;57725;47.526;18.986;2022-12-10T05:12:21;98348.63;;;6.35;95.53
70314;BME280;57725;47.526;18.986;2022-12-10T05:14:47;98357.19;;;6.37;94.68
70314;BME280;57725;47.526;18.986;2022-12-10T05:17:12;98365.91;;;6.36;95.21
70314;BME280;57725;47.526;18.986;2022-12-10T05:19:37;98366.75;;;6.37;94.91
70314;BME280;57725;47.526;18.986;2022-12-10T05:22:03;98364.13;;;6.37;95.38
70314;BME280;57725;47.526;18.986;2022-12-10T05:24:47;98365.06;;;6.36;95.21
70314;BME280;57725;47.526;18.986;2022-12-10T05:27:12;98375.38;;;6.37;94.91
70314;BME280;57725;47.526;18.986;2022-12-10T05:29:39;98376.22;;;6.38;94.93
70314;BME280;57725;47.526;18.986;2022-12-10T05:32:05;98379.72;;;6.37;94.66
70314;BME280;57725;47.526;18.986;2022-12-10T05:34:30;98383.22;;;6.36;95.05
70314;BME280;57725;47.526;18.986;2022-12-10T05:36:56;98384.06;;;6.36;95.21
70314;BME280;57725;47.526;18.986;2022-12-10T05:39:21;98371.94;;;6.37;95.50
70314;BME280;57725;47.526;18.986;2022-12-10T05:41:46;98377.97;;;6.37;95.34
70314;BME280;57725;47.526;18.986;2022-12-10T05:44:12;98390.03;;;6.38;94.86
70314;BME280;57725;47.526;18.986;2022-12-10T05:46:38;98383.31;;;6.34;94.91
70314;BME280;57725;47.526;18.986;2022-12-10T05:49:05;98388.28;;;6.39;95.36
70314;BME280;57725;47.526;18.986;2022-12-10T05:51:33;98390.94;;;6.37;94.92
70314;BME280;57725;47.526;18.986;2022-12-10T05:53:59;98384.75;;;6.40;95.02
70314;BME280;57725;47.526;18.986;2022-12-10T05:56:26;98391.84;;;6.36;95.14
70314;BME280;57725;47.526;18.986;2022-12-10T05:58:59;98405.66;;;6.37;95.15
70314;BME280;57725;47.526;18.986;2022-12-10T06:01:27;98401.19;;;6.40;95.08
70314;BME280;57725;47.526;18.986;2022-12-10T06:03:53;98390.88;;;6.39;95.12
70314;BME280;57725;47.526;18.986;2022-12-10T06:06:23;98380.81;;;6.33;94.92
70314;BME280;57725;47.526;18.986;2022-12-10T06:08:49;98394.31;;;6.39;95.19
70314;BME280;57725;47.526;18.986;2022-12-10T06:11:15;98408.13;;;6.40;95.01
70314;BME280;57725;47.526;18.986;2022-12-10T06:13:40;98408.97;;;6.40;95.11
70314;BME280;57725;47.526;18.986;2022-12-10T06:16:11;98409.94;;;6.38;94.93
70314;BME280;57725;47.526;18.986;2022-12-10T06:18:37;98415.00;;;6.41;95.11
70314;BME280;57725;47.526;18.986;2022-12-10T06:21:07;98413.31;;;6.40;95.23
70314;BME280;57725;47.526;18.986;2022-12-10T06:23:36;98416.81;;;6.39;94.86
70314;BME280;57725;47.526;18.986;2022-12-10T06:26:14;98431.41;;;6.41;95.05
70314;BME280;57725;47.526;18.986;2022-12-10T06:28:40;98432.34;;;6.40;95.05
70314;BME280;57725;47.526;18.986;2022-12-10T06:31:06;98433.19;;;6.41;95.00
70314;BME280;57725;47.526;18.986;2022-12-10T06:33:33;98428.91;;;6.40;95.22
70314;BME280;57725;47.526;18.986;2022-12-10T06:35:59;98435.78;;;6.41;95.33
70314;BME280;57725;47.526;18.986;2022-12-10T06:38:25;98434.09;;;6.40;95.03
70314;BME280;57725;47.526;18.986;2022-12-10T06:40:50;98432.41;;;6.39;94.82
70314;BME280;57725;47.526;18.986;2022-12-10T06:43:18;98437.53;;;6.40;95.22
70314;BME280;57725;47.526;18.986;2022-12-10T06:45:46;98434.94;;;6.40;94.96
70314;BME280;57725;47.526;18.986;2022-12-10T06:48:11;98437.53;;;6.40;94.75
70314;BME280;57725;47.526;18.986;2022-12-10T06:50:36;98424.63;;;6.39;95.49
70314;BME280;57725;47.526;18.986;2022-12-10T06:53:02;98435.78;;;6.41;95.26
70314;BME280;57725;47.526;18.986;2022-12-10T06:55:27;98440.06;;;6.42;95.10
70314;BME280;57725;47.526;18.986;2022-12-10T06:57:53;98433.25;;;6.39;95.02
70314;BME280;57725;47.526;18.986;2022-12-10T07:00:20;98446.09;;;6.42;94.71
70314;BME280;57725;47.526;18.986;2022-12-10T07:02:45;98434.94;;;6.40;95.10
70314;BME280;57725;47.526;18.986;2022-12-10T07:05:11;98435.84;;;6.39;94.67
70314;BME280;57725;47.526;18.986;2022-12-10T07:07:36;98438.38;;;6.41;95.12
70314;BME280;57725;47.526;18.986;2022-12-10T07:10:02;98434.78;;;6.43;94.87
70314;BME280;57725;47.526;18.986;2022-12-10T07:12:28;98443.50;;;6.42;95.08
70314;BME280;57725;47.526;18.986;2022-12-10T07:14:56;98450.38;;;6.43;94.65
70314;BME280;57725;47.526;18.986;2022-12-10T07:17:21;98439.13;;;6.43;94.90
70314;BME280;57725;47.526;18.986;2022-12-10T07:19:46;98427.91;;;6.42;94.76
70314;BME280;57725;47.526;18.986;2022-12-10T07:22:18;98428.75;;;6.43;94.67
70314;BME280;57725;47.526;18.986;2022-12-10T07:24:48;98433.94;;;6.43;94.99
70314;BME280;57725;47.526;18.986;2022-12-10T07:27:13;98433.09;;;6.42;94.68
70314;BME280;57725;47.526;18.986;2022-12-10T07:29:39;98431.34;;;6.43;94.83
70314;BME280;57725;47.526;18.986;2022-12-10T07:32:04;98422.72;;;6.42;95.05
70314;BME280;57725;47.526;18.986;2022-12-10T07:34:29;98411.50;;;6.42;95.03
70314;BME280;57725;47.526;18.986;2022-12-10T07:36:55;98410.59;;;6.43;94.60
70314;BME280;57725;47.526;18.986;2022-12-10T07:39:20;98388.59;;;6.33;94.85
70314;BME280;57725;47.526;18.986;2022-12-10T07:41:50;98403.63;;;6.43;95.10
70314;BME280;57725;47.526;18.986;2022-12-10T07:44:16;98417.53;;;6.42;95.24
70314;BME280;57725;47.526;18.986;2022-12-10T07:46:43;98420.13;;;6.42;95.19
70314;BME280;57725;47.526;18.986;2022-12-10T07:49:09;98430.50;;;6.42;94.76
70314;BME280;57725;47.526;18.986;2022-12-10T07:51:34;98437.38;;;6.43;94.85
70314;BME280;57725;47.526;18.986;2022-12-10T07:54:00;98445.25;;;6.42;94.57
70314;BME280;57725;47.526;18.986;2022-12-10T07:56:25;98448.59;;;6.44;94.93
70314;BME280;57725;47.526;18.986;2022-12-10T07:58:52;98459.00;;;6.44;94.75
70314;BME280;57725;47.526;18.986;2022-12-10T08:01:24;98465.94;;;6.43;94.81
70314;BME280;57725;47.526;18.986;2022-12-10T08:03:50;98457.25;;;6.44;95.04
70314;BME280;57725;47.526;18.986;2022-12-10T08:06:20;98452.88;;;6.45;94.84
70314;BME280;57725;47.526;18.986;2022-12-10T08:08:46;98447.75;;;6.43;94.75
70314;BME280;57725;47.526;18.986;2022-12-10T08:11:13;98427.91;;;6.42;95.08
70314;BME280;57725;47.526;18.986;2022-12-10T08:13:39;98427.91;;;6.42;95.06
70314;BME280;57725;47.526;18.986;2022-12-10T08:16:10;98431.50;;;6.40;95.40
70314;BME280;57725;47.526;18.986;2022-12-10T08:18:38;98430.44;;;6.44;94.75
70314;BME280;57725;47.526;18.986;2022-12-10T08:21:12;98430.44;;;6.44;95.25
70314;BME280;57725;47.526;18.986;2022-12-10T08:23:37;98436.53;;;6.43;94.87
70314;BME280;57725;47.526;18.986;2022-12-10T08:26:04;98445.94;;;6.45;95.06
70314;BME280;57725;47.526;18.986;2022-12-10T08:28:30;98446.84;;;6.44;94.88
70314;BME280;57725;47.526;18.986;2022-12-10T08:30:55;98440.81;;;6.44;95.04
70314;BME280;57725;47.526;18.986;2022-12-10T08:33:23;98437.31;;;6.45;94.63
70314;BME280;57725;47.526;18.986;2022-12-10T08:35:48;98426.22;;;6.41;94.62
70314;BME280;57725;47.526;18.986;2022-12-10T08:38:14;98432.25;;;6.42;95.06
70314;BME280;57725;47.526;18.986;2022-12-10T08:40:40;98436.53;;;6.43;94.96
70314;BME280;57725;47.526;18.986;2022-12-10T08:43:08;98437.44;;;6.42;94.88
70314;BME280;57725;47.526;18.986;2022-12-10T08:45:34;98445.16;;;6.43;95.15
70314;BME280;57725;47.526;18.986;2022-12-10T08:48:01;98450.28;;;6.45;94.83
70314;BME280;57725;47.526;18.986;2022-12-10T08:50:28;98443.41;;;6.44;94.96
70314;BME280;57725;47.526;18.986;2022-12-10T08:52:54;98441.66;;;6.44;95.13
70314;BME280;57725;47.526;18.986;2022-12-10T08:55:19;98453.81;;;6.44;95.01
70314;BME280;57725;47.526;18.986;2022-12-10T08:57:45;98454.66;;;6.44;95.01
70314;BME280;57725;47.526;18.986;2022-12-10T09:00:13;98456.41;;;6.44;95.11
70314;BME280;57725;47.526;18.986;2022-12-10T09:02:39;98461.59;;;6.44;94.81
70314;BME280;57725;47.526;18.986;2022-12-10T09:05:04;98455.56;;;6.43;95.19
70314;BME280;57725;47.526;18.986;2022-12-10T09:07:32;98464.13;;;6.45;95.21
70314;BME280;57725;47.526;18.986;2022-12-10T09:09:58;98448.53;;;6.45;94.78
70314;BME280;57725;47.526;18.986;2022-12-10T09:12:23;98452.03;;;6.44;94.78
70314;BME280;57725;47.526;18.986;2022-12-10T09:14:49;98459.84;;;6.44;95.04
70314;BME280;57725;47.526;18.986;2022-12-10T09:17:14;98471.91;;;6.45;94.80
70314;BME280;57725;47.526;18.986;2022-12-10T09:19:42;98467.56;;;6.46;94.98
70314;BME280;57725;47.526;18.986;2022-12-10T09:22:07;98462.38;;;6.46;95.10
70314;BME280;57725;47.526;18.986;2022-12-10T09:24:33;98452.03;;;6.44;94.71
70314;BME280;57725;47.526;18.986;2022-12-10T09:27:02;98455.38;;;6.46;95.24
70314;BME280;57725;47.526;18.986;2022-12-10T09:29:28;98434.72;;;6.45;94.93
70314;BME280;57725;47.526;18.986;2022-12-10T09:31:53;98444.09;;;6.47;94.87
70314;BME280;57725;47.526;18.986;2022-12-10T09:34:18;98451.03;;;6.47;94.95
70314;BME280;57725;47.526;18.986;2022-12-10T09:36:50;98453.63;;;6.47;94.87
70314;BME280;57725;47.526;18.986;2022-12-10T09:39:15;98447.53;;;6.48;95.44
70314;BME280;57725;47.526;18.986;2022-12-10T09:42:03;98446.69;;;6.47;94.96
70314;BME280;57725;47.526;18.986;2022-12-10T09:47:01;98429.41;;;6.46;94.82
70314;BME280;57725;47.526;18.986;2022-12-10T09:49:43;98419.03;;;6.46;94.70
70314;BME280;57725;47.526;18.986;2022-12-10T09:52:19;98416.44;;;6.46;94.71
70314;BME280;57725;47.526;18.986;2022-12-10T09:54:50;98397.34;;;6.47;95.40
70314;BME280;57725;47.526;18.986;2022-12-10T09:57:50;98383.53;;;6.47;94.90
70314;BME280;57725;47.526;18.986;2022-12-10T10:00:21;98377.44;;;6.48;95.13
70314;BME280;57725;47.526;18.986;2022-12-10T10:02:48;98388.00;;;6.45;95.34
70314;BME280;57725;47.526;18.986;2022-12-10T10:05:27;98386.91;;;6.49;95.50
70314;BME280;57725;47.526;18.986;2022-12-10T10:07:55;98386.06;;;6.48;95.20
70314;BME280;57725;47.526;18.986;2022-12-10T10:10:36;98384.31;;;6.49;95.32
70314;BME280;57725;47.526;18.986;2022-12-10T10:15:34;98379.94;;;6.49;94.82
70314;BME280;57725;47.526;18.986;2022-12-10T10:18:17;98374.00;;;6.47;95.15
70314;BME280;57725;47.526;18.986;2022-12-10T10:20:43;98382.63;;;6.48;95.24
70314;BME280;57725;47.526;18.986;2022-12-10T10:23:13;98385.97;;;6.50;95.32
70314;BME280;57725;47.526;18.986;2022-12-10T10:25:40;98385.16;;;6.49;94.84
70314;BME280;57725;47.526;18.986;2022-12-10T10:28:11;98390.34;;;6.49;95.28
70314;BME280;57725;47.526;18.986;2022-12-10T10:30:41;98387.81;;;6.48;94.81
70314;BME280;57725;47.526;18.986;2022-12-10T10:33:10;98397.13;;;6.52;95.04
70314;BME280;57725;47.526;18.986;2022-12-10T10:35:52;98393.69;;;6.51;95.03
70314;BME280;57725;47.526;18.986;2022-12-10T10:38:29;98397.13;;;6.52;94.99
70314;BME280;57725;47.526;18.986;2022-12-10T10:41:04;98397.22;;;6.50;94.75
70314;BME280;57725;47.526;18.986;2022-12-10T10:43:33;98389.34;;;6.52;95.23
70314;BME280;57725;47.526;18.986;2022-12-10T10:46:12;98390.25;;;6.51;95.30
70314;BME280;57725;47.526;18.986;2022-12-10T10:48:38;98395.38;;;6.52;95.28
70314;BME280;57725;47.526;18.986;2022-12-10T10:53:41;98400.56;;;6.52;94.69
70314;BME280;57725;47.526;18.986;2022-12-10T10:56:25;98400.56;;;6.52;95.03
70314;BME280;57725;47.526;18.986;2022-12-10T10:59:29;98407.44;;;6.53;95.13
70314;BME280;57725;47.526;18.986;2022-12-10T11:02:01;98388.59;;;6.50;94.87
70314;BME280;57725;47.526;18.986;2022-12-10T11:04:37;98392.72;;;6.54;95.20
70314;BME280;57725;47.526;18.986;2022-12-10T11:07:05;98387.59;;;6.52;95.35
70314;BME280;57725;47.526;18.986;2022-12-10T11:09:32;98385.91;;;6.51;94.89
70314;BME280;57725;47.526;18.986;2022-12-10T11:12:28;98384.94;;;6.54;95.08
70314;BME280;57725;47.526;18.986;2022-12-10T11:14:54;98384.00;;;6.55;95.14
70314;BME280;57725;47.526;18.986;2022-12-10T11:17:22;98382.34;;;6.54;94.80
70314;BME280;57725;47.526;18.986;2022-12-10T11:22:50;98377.97;;;6.54;95.28
70314;BME280;57725;47.526;18.986;2022-12-10T11:25:16;98368.44;;;6.55;94.87
70314;BME280;57725;47.526;18.986;2022-12-10T11:28:04;98361.50;;;6.56;95.21
70314;BME280;57725;47.526;18.986;2022-12-10T11:30:41;98358.97;;;6.54;95.34
70314;BME280;57725;47.526;18.986;2022-12-10T11:33:36;98351.09;;;6.56;95.00
70314;BME280;57725;47.526;18.986;2022-12-10T11:36:25;98344.16;;;6.56;95.19
70314;BME280;57725;47.526;18.986;2022-12-10T11:39:06;98340.72;;;6.56;95.12
70314;BME280;57725;47.526;18.986;2022-12-10T11:42:04;98332.00;;;6.57;95.06
70314;BME280;57725;47.526;18.986;2022-12-10T11:44:41;98332.00;;;6.57;94.75
70314;BME280;57725;47.526;18.986;2022-12-10T11:49:55;98326.81;;;6.57;95.18
70314;BME280;57725;47.526;18.986;2022-12-10T11:55:21;98310.41;;;6.56;94.83
70314;BME280;57725;47.526;18.986;2022-12-10T11:58:09;98303.44;;;6.57;94.89
70314;BME280;57725;47.526;18.986;2022-12-10T12:00:52;98297.41;;;6.56;95.21
70314;BME280;57725;47.526;18.986;2022-12-10T12:03:34;98298.16;;;6.58;94.91
70314;BME280;57725;47.526;18.986;2022-12-10T12:13:59;98299.16;;;6.56;94.66
70314;BME280;57725;47.526;18.986;2022-12-10T12:16:42;98301.59;;;6.59;95.08
70314;BME280;57725;47.526;18.986;2022-12-10T12:19:22;98300.75;;;6.58;94.73
70314;BME280;57725;47.526;18.986;2022-12-10T12:22:00;98298.06;;;6.60;95.10
70314;BME280;57725;47.526;18.986;2022-12-10T12:24:40;98287.03;;;6.56;94.77
70314;BME280;57725;47.526;18.986;2022-12-10T12:27:24;98281.59;;;6.61;94.64
70314;BME280;57725;47.526;18.986;2022-12-10T12:30:03;98281.75;;;6.58;95.33
70314;BME280;57725;47.526;18.986;2022-12-10T12:35:21;98281.59;;;6.61;94.92
70314;BME280;57725;47.526;18.986;2022-12-10T12:37:58;98279.91;;;6.60;95.29
70314;BME280;57725;47.526;18.986;2022-12-10T12:40:41;98277.31;;;6.60;94.69
70314;BME280;57725;47.526;18.986;2022-12-10T12:43:19;98283.25;;;6.62;94.82
70314;BME280;57725;47.526;18.986;2022-12-10T12:45:48;98282.41;;;6.61;94.59
70314;BME280;57725;47.526;18.986;2022-12-10T12:48:32;98287.63;;;6.61;95.22
70314;BME280;57725;47.526;18.986;2022-12-10T12:51:10;98285.84;;;6.62;94.86
70314;BME280;57725;47.526;18.986;2022-12-10T12:53:39;98290.22;;;6.61;94.98
70314;BME280;57725;47.526;18.986;2022-12-10T13:01:53;98293.66;;;6.62;94.80
70314;BME280;57725;47.526;18.986;2022-12-10T13:04:19;98290.22;;;6.61;95.05
70314;BME280;57725;47.526;18.986;2022-12-10T13:07:25;98298.00;;;6.61;94.85
70314;BME280;57725;47.526;18.986;2022-12-10T13:12:46;98304.09;;;6.60;94.73
70314;BME280;57725;47.526;18.986;2022-12-10T13:15:33;98315.25;;;6.62;94.84
70314;BME280;57725;47.526;18.986;2022-12-10T13:33:52;98302.34;;;6.61;94.71
70314;BME280;57725;47.526;18.986;2022-12-10T13:36:34;98299.69;;;6.62;94.89
70314;BME280;57725;47.526;18.986;2022-12-10T13:41:33;98305.72;;;6.63;95.10
70314;BME280;57725;47.526;18.986;2022-12-10T13:49:56;98303.19;;;6.61;95.15
70314;BME280;57725;47.526;18.986;2022-12-10T13:52:30;98296.25;;;6.62;94.68
70314;BME280;57725;47.526;18.986;2022-12-10T13:57:59;98296.25;;;6.62;94.79
70314;BME280;57725;47.526;18.986;2022-12-10T14:06:26;98278.91;;;6.62;94.97
70314;BME280;57725;47.526;18.986;2022-12-10T14:09:02;98278.06;;;6.62;94.85
70314;BME280;57725;47.526;18.986;2022-12-10T14:11:31;98275.53;;;6.60;94.98
70314;BME280;57725;47.526;18.986;2022-12-10T14:13:59;98274.63;;;6.61;94.80
70314;BME280;57725;47.526;18.986;2022-12-10T14:16:30;98278.97;;;6.61;94.97
70314;BME280;57725;47.526;18.986;2022-12-10T14:19:01;98285.78;;;6.63;95.14
70314;BME280;57725;47.526;18.986;2022-12-10T14:21:33;98278.16;;;6.60;94.82
70314;BME280;57725;47.526;18.986;2022-12-10T14:23:59;98283.25;;;6.62;94.99
70314;BME280;57725;47.526;18.986;2022-12-10T14:26:36;98282.41;;;6.61;94.91
70314;BME280;57725;47.526;18.986;2022-12-10T14:29:21;98272.94;;;6.60;95.04
70314;BME280;57725;47.526;18.986;2022-12-10T14:31:48;98279.81;;;6.61;94.51
70314;BME280;57725;47.526;18.986;2022-12-10T14:34:18;98284.09;;;6.62;94.73
70314;BME280;57725;47.526;18.986;2022-12-10T14:36:52;98278.06;;;6.62;94.88
70314;BME280;57725;47.526;18.986;2022-12-10T14:39:28;98277.22;;;6.61;95.05
70314;BME280;57725;47.526;18.986;2022-12-10T14:42:01;98279.81;;;6.61;94.74
70314;BME280;57725;47.526;18.986;2022-12-10T14:44:31;98277.16;;;6.63;95.02
70314;BME280;57725;47.526;18.986;2022-12-10T14:49:43;98284.94;;;6.63;95.02
70314;BME280;57725;47.526;18.986;2022-12-10T14:52:15;98276.38;;;6.61;94.63
70314;BME280;57725;47.526;18.986;2022-12-10T14:54:42;98282.50;;;6.60;95.11